<?xml version="1.0" encoding="UTF-8" standalone="no" ?>
<gpx xmlns="http://www.topografix.com/GPX/1/1" xmlns:xsi="http://www.w3.org/2001/XMLSchema-instance" xsi:schemaLocation="http://www.topografix.com/GPX/1/1 http://www.topografix.com/GPX/1/1/gpx.xsd" version="1.1" creator="VisuGPX - https://www.visugpx.com">
  <metadata>
    <name>Verneuil Vernouillet</name>
  </metadata>
  <trk>
    <name><![CDATA[Verneuil Vernouillet_1]]></name>
    <trkseg>
      <trkpt lat="48.9798" lon="1.99912">
        <ele>21.6</ele>
        <time>2022-10-14T19:02:24Z</time>
      </trkpt>
      <trkpt lat="48.98191" lon="1.99788">
        <ele>20.6</ele>
        <time>2022-10-14T19:07:26Z</time>
      </trkpt>
      <trkpt lat="48.98295" lon="1.99669">
        <ele>21.9</ele>
        <time>2022-10-14T19:10:19Z</time>
      </trkpt>
      <trkpt lat="48.98374" lon="1.99628">
        <ele>20.2</ele>
        <time>2022-10-14T19:12:11Z</time>
      </trkpt>
      <trkpt lat="48.9847" lon="1.99477">
        <ele>20.8</ele>
        <time>2022-10-14T19:15:15Z</time>
      </trkpt>
      <trkpt lat="48.98516" lon="1.99331">
        <ele>20.4</ele>
        <time>2022-10-14T19:17:37Z</time>
      </trkpt>
      <trkpt lat="48.98636" lon="1.99088">
        <ele>20.8</ele>
        <time>2022-10-14T19:22:03Z</time>
      </trkpt>
      <trkpt lat="48.98761" lon="1.98859">
        <ele>20</ele>
        <time>2022-10-14T19:26:24Z</time>
      </trkpt>
      <trkpt lat="48.98832" lon="1.98673">
        <ele>19.8</ele>
        <time>2022-10-14T19:29:32Z</time>
      </trkpt>
      <trkpt lat="48.98878" lon="1.98534">
        <ele>23.4</ele>
        <time>2022-10-14T19:31:49Z</time>
      </trkpt>
      <trkpt lat="48.98911" lon="1.98491">
        <ele>23.6</ele>
        <time>2022-10-14T19:32:47Z</time>
      </trkpt>
      <trkpt lat="48.98924" lon="1.98437">
        <ele>24.1</ele>
        <time>2022-10-14T19:33:37Z</time>
      </trkpt>
      <trkpt lat="48.99157" lon="1.98123">
        <ele>22.6</ele>
        <time>2022-10-14T19:40:32Z</time>
      </trkpt>
      <trkpt lat="48.9925" lon="1.97993">
        <ele>19.8</ele>
        <time>2022-10-14T19:43:20Z</time>
      </trkpt>
      <trkpt lat="48.99407" lon="1.97652">
        <ele>22.4</ele>
        <time>2022-10-14T19:49:25Z</time>
      </trkpt>
      <trkpt lat="48.9937" lon="1.97589">
        <ele>20.4</ele>
        <time>2022-10-14T19:50:39Z</time>
      </trkpt>
      <trkpt lat="48.99355" lon="1.97568">
        <ele>21</ele>
        <time>2022-10-14T19:51:06Z</time>
      </trkpt>
      <trkpt lat="48.99342" lon="1.9755">
        <ele>21.4</ele>
        <time>2022-10-14T19:51:30Z</time>
      </trkpt>
      <trkpt lat="48.99301" lon="1.97495">
        <ele>22.3</ele>
        <time>2022-10-14T19:52:43Z</time>
      </trkpt>
      <trkpt lat="48.99237" lon="1.97394">
        <ele>23.3</ele>
        <time>2022-10-14T19:54:46Z</time>
      </trkpt>
      <trkpt lat="48.99183" lon="1.97315">
        <ele>23</ele>
        <time>2022-10-14T19:56:26Z</time>
      </trkpt>
      <trkpt lat="48.99105" lon="1.97178">
        <ele>23.1</ele>
        <time>2022-10-14T19:59:04Z</time>
      </trkpt>
      <trkpt lat="48.98991" lon="1.96995">
        <ele>26.9</ele>
        <time>2022-10-14T20:02:45Z</time>
      </trkpt>
      <trkpt lat="48.98907" lon="1.96978">
        <ele>25.8</ele>
        <time>2022-10-14T20:04:38Z</time>
      </trkpt>
      <trkpt lat="48.98805" lon="1.96888">
        <ele>28.9</ele>
        <time>2022-10-14T20:07:16Z</time>
      </trkpt>
      <trkpt lat="48.98744" lon="1.96721">
        <ele>26.2</ele>
        <time>2022-10-14T20:10:03Z</time>
      </trkpt>
      <trkpt lat="48.98609" lon="1.96371">
        <ele>29.6</ele>
        <time>2022-10-14T20:15:59Z</time>
      </trkpt>
      <trkpt lat="48.98533" lon="1.96264">
        <ele>31.9</ele>
        <time>2022-10-14T20:18:17Z</time>
      </trkpt>
      <trkpt lat="48.98512" lon="1.96257">
        <ele>31.9</ele>
        <time>2022-10-14T20:18:45Z</time>
      </trkpt>
      <trkpt lat="48.98506" lon="1.96293">
        <ele>31.1</ele>
        <time>2022-10-14T20:19:18Z</time>
      </trkpt>
      <trkpt lat="48.98485" lon="1.96268">
        <ele>31.2</ele>
        <time>2022-10-14T20:19:53Z</time>
      </trkpt>
      <trkpt lat="48.98473" lon="1.9623">
        <ele>31.7</ele>
        <time>2022-10-14T20:20:30Z</time>
      </trkpt>
      <trkpt lat="48.98457" lon="1.96114">
        <ele>32.9</ele>
        <time>2022-10-14T20:22:14Z</time>
      </trkpt>
      <trkpt lat="48.98415" lon="1.95897">
        <ele>34</ele>
        <time>2022-10-14T20:25:32Z</time>
      </trkpt>
      <trkpt lat="48.98311" lon="1.95937">
        <ele>30.6</ele>
        <time>2022-10-14T20:27:55Z</time>
      </trkpt>
      <trkpt lat="48.9826" lon="1.95941">
        <ele>29</ele>
        <time>2022-10-14T20:29:04Z</time>
      </trkpt>
      <trkpt lat="48.98189" lon="1.95727">
        <ele>30.1</ele>
        <time>2022-10-14T20:32:34Z</time>
      </trkpt>
      <trkpt lat="48.98095" lon="1.95831">
        <ele>30.4</ele>
        <time>2022-10-14T20:35:09Z</time>
      </trkpt>
      <trkpt lat="48.98124" lon="1.96033">
        <ele>30.9</ele>
        <time>2022-10-14T20:38:10Z</time>
      </trkpt>
      <trkpt lat="48.98106" lon="1.96039">
        <ele>31.1</ele>
        <time>2022-10-14T20:38:34Z</time>
      </trkpt>
      <trkpt lat="48.98083" lon="1.96023">
        <ele>31.8</ele>
        <time>2022-10-14T20:39:08Z</time>
      </trkpt>
      <trkpt lat="48.98061" lon="1.95969">
        <ele>31.8</ele>
        <time>2022-10-14T20:40:04Z</time>
      </trkpt>
      <trkpt lat="48.98029" lon="1.95868">
        <ele>31.2</ele>
        <time>2022-10-14T20:41:42Z</time>
      </trkpt>
      <trkpt lat="48.98031" lon="1.95738">
        <ele>31.5</ele>
        <time>2022-10-14T20:43:36Z</time>
      </trkpt>
      <trkpt lat="48.98021" lon="1.95727">
        <ele>31.9</ele>
        <time>2022-10-14T20:43:52Z</time>
      </trkpt>
      <trkpt lat="48.97951" lon="1.95574">
        <ele>36.1</ele>
        <time>2022-10-14T20:46:36Z</time>
      </trkpt>
      <trkpt lat="48.97948" lon="1.95539">
        <ele>37.5</ele>
        <time>2022-10-14T20:47:07Z</time>
      </trkpt>
      <trkpt lat="48.97943" lon="1.95439">
        <ele>41.3</ele>
        <time>2022-10-14T20:48:34Z</time>
      </trkpt>
      <trkpt lat="48.97965" lon="1.9498">
        <ele>43.1</ele>
        <time>2022-10-14T20:55:17Z</time>
      </trkpt>
      <trkpt lat="48.97884" lon="1.95063">
        <ele>47.4</ele>
        <time>2022-10-14T20:57:28Z</time>
      </trkpt>
      <trkpt lat="48.97775" lon="1.95106">
        <ele>50.2</ele>
        <time>2022-10-14T20:59:58Z</time>
      </trkpt>
      <trkpt lat="48.97679" lon="1.95151">
        <ele>50.6</ele>
        <time>2022-10-14T21:02:12Z</time>
      </trkpt>
      <trkpt lat="48.9757" lon="1.95214">
        <ele>49.2</ele>
        <time>2022-10-14T21:04:48Z</time>
      </trkpt>
      <trkpt lat="48.97543" lon="1.95335">
        <ele>43.9</ele>
        <time>2022-10-14T21:06:40Z</time>
      </trkpt>
      <trkpt lat="48.97634" lon="1.95474">
        <ele>41.5</ele>
        <time>2022-10-14T21:09:31Z</time>
      </trkpt>
      <trkpt lat="48.97765" lon="1.95543">
        <ele>37.5</ele>
        <time>2022-10-14T21:12:36Z</time>
      </trkpt>
      <trkpt lat="48.97718" lon="1.95689">
        <ele>35.2</ele>
        <time>2022-10-14T21:14:59Z</time>
      </trkpt>
      <trkpt lat="48.97687" lon="1.95847">
        <ele>41</ele>
        <time>2022-10-14T21:17:23Z</time>
      </trkpt>
      <trkpt lat="48.97773" lon="1.95997">
        <ele>43.1</ele>
        <time>2022-10-14T21:20:18Z</time>
      </trkpt>
      <trkpt lat="48.97568" lon="1.96349">
        <ele>59.5</ele>
        <time>2022-10-14T21:27:10Z</time>
      </trkpt>
      <trkpt lat="48.97354" lon="1.96784">
        <ele>59</ele>
        <time>2022-10-14T21:35:06Z</time>
      </trkpt>
      <trkpt lat="48.97072" lon="1.96498">
        <ele>63</ele>
        <time>2022-10-14T21:42:38Z</time>
      </trkpt>
      <trkpt lat="48.96892" lon="1.96291">
        <ele>65.9</ele>
        <time>2022-10-14T21:47:39Z</time>
      </trkpt>
      <trkpt lat="48.96746" lon="1.96126">
        <ele>69.1</ele>
        <time>2022-10-14T21:51:42Z</time>
      </trkpt>
      <trkpt lat="48.96611" lon="1.95974">
        <ele>73</ele>
        <time>2022-10-14T21:55:26Z</time>
      </trkpt>
      <trkpt lat="48.9652" lon="1.96234">
        <ele>74.2</ele>
        <time>2022-10-14T21:59:44Z</time>
      </trkpt>
      <trkpt lat="48.96551" lon="1.9629">
        <ele>72.7</ele>
        <time>2022-10-14T22:00:48Z</time>
      </trkpt>
      <trkpt lat="48.96538" lon="1.96441">
        <ele>72</ele>
        <time>2022-10-14T22:03:02Z</time>
      </trkpt>
      <trkpt lat="48.96496" lon="1.96546">
        <ele>72.1</ele>
        <time>2022-10-14T22:04:49Z</time>
      </trkpt>
      <trkpt lat="48.96489" lon="1.96636">
        <ele>72</ele>
        <time>2022-10-14T22:06:09Z</time>
      </trkpt>
      <trkpt lat="48.96475" lon="1.96671">
        <ele>72</ele>
        <time>2022-10-14T22:06:45Z</time>
      </trkpt>
      <trkpt lat="48.96468" lon="1.96687">
        <ele>72</ele>
        <time>2022-10-14T22:07:01Z</time>
      </trkpt>
      <trkpt lat="48.96457" lon="1.96668">
        <ele>72</ele>
        <time>2022-10-14T22:07:24Z</time>
      </trkpt>
      <trkpt lat="48.96426" lon="1.96559">
        <ele>73.7</ele>
        <time>2022-10-14T22:09:08Z</time>
      </trkpt>
      <trkpt lat="48.96241" lon="1.96018">
        <ele>84.3</ele>
        <time>2022-10-14T22:18:02Z</time>
      </trkpt>
      <trkpt lat="48.96029" lon="1.96231">
        <ele>89.9</ele>
        <time>2022-10-14T22:23:41Z</time>
      </trkpt>
      <trkpt lat="48.96006" lon="1.96243">
        <ele>90.8</ele>
        <time>2022-10-14T22:24:13Z</time>
      </trkpt>
      <trkpt lat="48.95965" lon="1.96347">
        <ele>91.4</ele>
        <time>2022-10-14T22:26:00Z</time>
      </trkpt>
      <trkpt lat="48.95869" lon="1.96528">
        <ele>90.7</ele>
        <time>2022-10-14T22:29:24Z</time>
      </trkpt>
      <trkpt lat="48.95775" lon="1.9661">
        <ele>92.2</ele>
        <time>2022-10-14T22:31:48Z</time>
      </trkpt>
      <trkpt lat="48.95567" lon="1.96964">
        <ele>92</ele>
        <time>2022-10-14T22:38:44Z</time>
      </trkpt>
      <trkpt lat="48.95442" lon="1.97197">
        <ele>100.1</ele>
        <time>2022-10-14T22:43:08Z</time>
      </trkpt>
      <trkpt lat="48.95413" lon="1.97219">
        <ele>102.4</ele>
        <time>2022-10-14T22:43:51Z</time>
      </trkpt>
      <trkpt lat="48.95411" lon="1.97288">
        <ele>102.8</ele>
        <time>2022-10-14T22:44:52Z</time>
      </trkpt>
      <trkpt lat="48.95412" lon="1.9732">
        <ele>103.2</ele>
        <time>2022-10-14T22:45:20Z</time>
      </trkpt>
      <trkpt lat="48.95414" lon="1.97332">
        <ele>103.1</ele>
        <time>2022-10-14T22:45:31Z</time>
      </trkpt>
      <trkpt lat="48.95509" lon="1.97443">
        <ele>94.4</ele>
        <time>2022-10-14T22:48:11Z</time>
      </trkpt>
      <trkpt lat="48.95598" lon="1.97468">
        <ele>88.2</ele>
        <time>2022-10-14T22:50:11Z</time>
      </trkpt>
      <trkpt lat="48.95672" lon="1.97565">
        <ele>83.4</ele>
        <time>2022-10-14T22:52:22Z</time>
      </trkpt>
      <trkpt lat="48.95869" lon="1.97921">
        <ele>71.8</ele>
        <time>2022-10-14T22:59:10Z</time>
      </trkpt>
      <trkpt lat="48.95929" lon="1.98011">
        <ele>69.6</ele>
        <time>2022-10-14T23:01:02Z</time>
      </trkpt>
      <trkpt lat="48.96045" lon="1.97994">
        <ele>69.2</ele>
        <time>2022-10-14T23:03:37Z</time>
      </trkpt>
      <trkpt lat="48.96146" lon="1.98183">
        <ele>64.6</ele>
        <time>2022-10-14T23:07:11Z</time>
      </trkpt>
      <trkpt lat="48.96293" lon="1.98636">
        <ele>55.7</ele>
        <time>2022-10-14T23:14:34Z</time>
      </trkpt>
      <trkpt lat="48.96478" lon="1.98861">
        <ele>48</ele>
        <time>2022-10-14T23:19:50Z</time>
      </trkpt>
      <trkpt lat="48.96638" lon="1.98698">
        <ele>48</ele>
        <time>2022-10-14T23:24:06Z</time>
      </trkpt>
      <trkpt lat="48.96759" lon="1.98445">
        <ele>38</ele>
        <time>2022-10-14T23:28:41Z</time>
      </trkpt>
      <trkpt lat="48.96946" lon="1.98138">
        <ele>53</ele>
        <time>2022-10-14T23:34:48Z</time>
      </trkpt>
      <trkpt lat="48.96997" lon="1.98305">
        <ele>47.1</ele>
        <time>2022-10-14T23:37:29Z</time>
      </trkpt>
      <trkpt lat="48.9712" lon="1.98224">
        <ele>48.9</ele>
        <time>2022-10-14T23:40:28Z</time>
      </trkpt>
      <trkpt lat="48.97153" lon="1.98329">
        <ele>43.2</ele>
        <time>2022-10-14T23:42:10Z</time>
      </trkpt>
      <trkpt lat="48.97158" lon="1.98355">
        <ele>41.7</ele>
        <time>2022-10-14T23:42:33Z</time>
      </trkpt>
      <trkpt lat="48.97182" lon="1.98348">
        <ele>41.7</ele>
        <time>2022-10-14T23:43:06Z</time>
      </trkpt>
      <trkpt lat="48.97186" lon="1.98358">
        <ele>41.1</ele>
        <time>2022-10-14T23:43:16Z</time>
      </trkpt>
      <trkpt lat="48.97188" lon="1.98363">
        <ele>40.9</ele>
        <time>2022-10-14T23:43:21Z</time>
      </trkpt>
      <trkpt lat="48.97196" lon="1.98361">
        <ele>41</ele>
        <time>2022-10-14T23:43:32Z</time>
      </trkpt>
      <trkpt lat="48.97223" lon="1.98405">
        <ele>38.4</ele>
        <time>2022-10-14T23:44:25Z</time>
      </trkpt>
      <trkpt lat="48.97259" lon="1.98389">
        <ele>39</ele>
        <time>2022-10-14T23:45:15Z</time>
      </trkpt>
      <trkpt lat="48.97447" lon="1.98806">
        <ele>23</ele>
        <time>2022-10-14T23:52:38Z</time>
      </trkpt>
      <trkpt lat="48.97572" lon="1.99064">
        <ele>22.3</ele>
        <time>2022-10-14T23:57:19Z</time>
      </trkpt>
      <trkpt lat="48.97755" lon="1.98877">
        <ele>23.9</ele>
        <time>2022-10-15T00:02:13Z</time>
      </trkpt>
      <trkpt lat="48.97832" lon="1.98833">
        <ele>27.8</ele>
        <time>2022-10-15T00:04:03Z</time>
      </trkpt>
      <trkpt lat="48.97857" lon="1.98917">
        <ele>24</ele>
        <time>2022-10-15T00:05:24Z</time>
      </trkpt>
      <trkpt lat="48.97912" lon="1.98841">
        <ele>24</ele>
        <time>2022-10-15T00:07:03Z</time>
      </trkpt>
      <trkpt lat="48.98005" lon="1.98994">
        <ele>22.3</ele>
        <time>2022-10-15T00:10:05Z</time>
      </trkpt>
      <trkpt lat="48.9791" lon="1.99117">
        <ele>22.7</ele>
        <time>2022-10-15T00:12:52Z</time>
      </trkpt>
      <trkpt lat="48.97987" lon="1.99455">
        <ele>21.2</ele>
        <time>2022-10-15T00:18:05Z</time>
      </trkpt>
      <trkpt lat="48.97985" lon="1.99528">
        <ele>22.5</ele>
        <time>2022-10-15T00:19:09Z</time>
      </trkpt>
      <trkpt lat="48.98" lon="1.99644">
        <ele>23</ele>
        <time>2022-10-15T00:20:53Z</time>
      </trkpt>
      <trkpt lat="48.9799" lon="1.99761">
        <ele>22</ele>
        <time>2022-10-15T00:22:36Z</time>
      </trkpt>
      <trkpt lat="48.9796" lon="1.99884">
        <ele>21.5</ele>
        <time>2022-10-15T00:24:31Z</time>
      </trkpt>
      <trkpt lat="48.97972" lon="1.99901">
        <ele>21.4</ele>
        <time>2022-10-15T00:24:53Z</time>
      </trkpt>
    </trkseg>
  </trk>
</gpx>